Time;durP1;ratioP1;P1;durP2;ratioP2;P2;SDS_P1;SDS_P2;PMS_P1;PMS_P2;Temp;Humidity;BMP_temperature;BMP_pressure;BME280_temperature;BME280_humidity;BME280_pressure;Samples;Min_cycle;Max_cycle;Signal;HPM_P1;HPM_P2
2023/10/26 00:00:34;;;;;;;1.40;0.70;;;;;;;;;;6201294;23;20407;-93
2023/10/26 00:03:00;;;;;;;0.90;0.67;;;;;;;;;;6207307;23;20399;-93
2023/10/26 00:05:26;;;;;;;0.83;0.63;;;;;;;;;;6201907;23;20384;-94
2023/10/26 00:07:52;;;;;;;0.77;0.60;;;;;;;;;;6199131;23;20398;-92
2023/10/26 00:10:18;;;;;;;1.17;0.90;;;;;;;;;;6172035;23;20380;-93
2023/10/26 00:12:45;;;;;;;1.00;0.90;;;;;;;;;;6169909;23;20439;-93
2023/10/26 00:15:11;;;;;;;0.70;0.60;;;;;;;;;;6167845;23;20423;-92
2023/10/26 00:17:41;;;;;;;1.20;0.80;;;;;;;;;;6143395;23;20403;-92
2023/10/26 00:20:07;;;;;;;0.63;0.50;;;;;;;;;;6144390;23;20458;-93
2023/10/26 00:22:33;;;;;;;2.20;0.87;;;;;;;;;;6140931;23;20840;-93
2023/10/26 00:24:59;;;;;;;2.30;0.77;;;;;;;;;;6143311;23;20365;-93
2023/10/26 00:27:25;;;;;;;1.97;0.80;;;;;;;;;;6140633;23;20408;-92
2023/10/26 00:29:51;;;;;;;3.93;0.80;;;;;;;;;;6146275;23;20486;-93
2023/10/26 00:32:17;;;;;;;3.80;1.03;;;;;;;;;;6140901;23;20428;-93
2023/10/26 00:34:43;;;;;;;1.27;1.00;;;;;;;;;;6146209;23;20429;-93
2023/10/26 00:37:10;;;;;;;1.33;0.83;;;;;;;;;;6139418;23;20465;-93
2023/10/26 00:39:36;;;;;;;0.80;0.80;;;;;;;;;;6143613;23;20465;-93
2023/10/26 00:42:02;;;;;;;1.07;0.83;;;;;;;;;;6191391;23;20379;-94
2023/10/26 00:44:28;;;;;;;1.37;0.70;;;;;;;;;;6178449;23;20473;-91
2023/10/26 00:46:55;;;;;;;1.03;0.90;;;;;;;;;;6195377;23;20390;-92
2023/10/26 00:49:21;;;;;;;0.80;0.60;;;;;;;;;;6202980;23;20386;-92
2023/10/26 00:51:50;;;;;;;3.23;0.80;;;;;;;;;;6203703;23;20434;-92
2023/10/26 00:54:20;;;;;;;1.40;0.80;;;;;;;;;;6203964;23;20383;-92
2023/10/26 00:56:46;;;;;;;1.30;0.90;;;;;;;;;;6226828;23;20387;-94
2023/10/26 00:59:13;;;;;;;2.10;0.60;;;;;;;;;;6201412;23;20387;-93
2023/10/26 01:01:39;;;;;;;0.90;0.70;;;;;;;;;;6199611;23;20375;-94
2023/10/26 01:04:07;;;;;;;1.83;0.83;;;;;;;;;;6203623;23;20387;-94
2023/10/26 01:06:33;;;;;;;1.47;0.90;;;;;;;;;;6203016;23;20450;-91
2023/10/26 01:08:59;;;;;;;0.70;0.60;;;;;;;;;;6200181;23;20370;-91
2023/10/26 01:11:25;;;;;;;1.57;0.97;;;;;;;;;;6202306;23;20368;-92
2023/10/26 01:13:51;;;;;;;4.20;0.90;;;;;;;;;;6207903;23;20398;-93
2023/10/26 01:16:17;;;;;;;0.90;0.67;;;;;;;;;;6203492;23;20452;-94
2023/10/26 01:18:43;;;;;;;1.57;0.90;;;;;;;;;;6200750;23;20437;-94
2023/10/26 01:21:10;;;;;;;0.70;0.70;;;;;;;;;;6202369;23;20363;-94
2023/10/26 01:23:36;;;;;;;0.80;0.63;;;;;;;;;;6200060;23;20446;-94
2023/10/26 01:26:02;;;;;;;1.23;0.90;;;;;;;;;;6203511;23;20392;-94
2023/10/26 01:28:28;;;;;;;1.67;0.90;;;;;;;;;;6197545;23;20387;-93
2023/10/26 01:30:54;;;;;;;1.00;0.60;;;;;;;;;;6201498;23;20419;-93
2023/10/26 01:33:20;;;;;;;1.77;0.90;;;;;;;;;;6200174;23;20894;-93
2023/10/26 01:35:47;;;;;;;1.10;0.73;;;;;;;;;;6205966;23;20362;-94
2023/10/26 01:38:13;;;;;;;0.90;0.60;;;;;;;;;;6197247;23;20367;-93
2023/10/26 01:40:39;;;;;;;0.90;0.80;;;;;;;;;;6199950;23;20390;-91
2023/10/26 01:43:05;;;;;;;3.77;0.93;;;;;;;;;;6199577;23;20843;-94
2023/10/26 01:45:31;;;;;;;2.07;0.67;;;;;;;;;;6202046;23;20383;-93
2023/10/26 01:48:02;;;;;;;2.47;1.03;;;;;;;;;;6196924;23;20455;-93
2023/10/26 01:50:28;;;;;;;0.80;0.60;;;;;;;;;;6199606;23;20387;-92
2023/10/26 01:52:54;;;;;;;1.87;0.70;;;;;;;;;;6198670;23;20538;-94
2023/10/26 01:55:21;;;;;;;0.70;0.50;;;;;;;;;;6203829;23;20406;-91
2023/10/26 01:57:47;;;;;;;1.20;0.80;;;;;;;;;;6200333;23;20867;-93
2023/10/26 02:00:13;;;;;;;1.10;0.60;;;;;;;;;;6201064;23;20410;-94
2023/10/26 02:02:39;;;;;;;0.80;0.77;;;;;;;;;;6202677;23;20401;-93
2023/10/26 02:05:05;;;;;;;1.00;0.87;;;;;;;;;;6200061;23;20439;-93
2023/10/26 02:07:31;;;;;;;3.17;0.80;;;;;;;;;;6208211;23;20425;-93
2023/10/26 02:09:57;;;;;;;2.03;1.10;;;;;;;;;;6199160;23;20371;-93
2023/10/26 02:12:23;;;;;;;1.20;0.80;;;;;;;;;;6199373;23;20450;-93
2023/10/26 02:14:49;;;;;;;2.00;0.80;;;;;;;;;;6224797;23;20367;-93
2023/10/26 02:17:15;;;;;;;1.00;0.70;;;;;;;;;;6200923;23;20383;-94
2023/10/26 02:19:41;;;;;;;0.80;0.70;;;;;;;;;;6198785;23;20390;-93
2023/10/26 02:22:07;;;;;;;1.67;0.77;;;;;;;;;;6199076;23;20438;-93
2023/10/26 02:24:33;;;;;;;3.33;0.80;;;;;;;;;;6199737;23;20398;-93
2023/10/26 02:26:59;;;;;;;1.37;0.80;;;;;;;;;;6198588;23;20383;-92
2023/10/26 02:29:25;;;;;;;1.63;0.70;;;;;;;;;;6197718;23;20386;-92
2023/10/26 02:31:51;;;;;;;0.83;0.70;;;;;;;;;;6201113;23;20457;-93
2023/10/26 02:34:17;;;;;;;1.30;1.00;;;;;;;;;;6200083;23;20395;-93
2023/10/26 02:36:43;;;;;;;12.17;7.87;;;;;;;;;;6200859;23;20453;-93
2023/10/26 02:39:10;;;;;;;1.40;1.30;;;;;;;;;;6224513;23;20389;-94
2023/10/26 02:41:36;;;;;;;4.37;2.80;;;;;;;;;;6203480;23;20387;-93
2023/10/26 02:44:02;;;;;;;1.77;1.40;;;;;;;;;;6200220;23;20379;-92
2023/10/26 02:46:28;;;;;;;2.20;1.10;;;;;;;;;;6200485;23;20394;-94
2023/10/26 02:48:55;;;;;;;0.97;0.87;;;;;;;;;;6198431;23;20398;-94
2023/10/26 02:51:21;;;;;;;1.43;1.30;;;;;;;;;;6202810;23;20379;-93
2023/10/26 02:53:47;;;;;;;1.30;1.20;;;;;;;;;;6200312;23;20426;-93
2023/10/26 02:56:13;;;;;;;1.30;1.00;;;;;;;;;;6203235;23;20385;-93
2023/10/26 02:58:39;;;;;;;0.97;0.90;;;;;;;;;;6198186;23;20407;-94
2023/10/26 03:01:05;;;;;;;1.00;0.90;;;;;;;;;;6202451;23;20411;-93
2023/10/26 03:03:31;;;;;;;5.50;1.93;;;;;;;;;;6198355;23;20383;-94
2023/10/26 03:06:01;;;;;;;1.33;1.00;;;;;;;;;;6203772;23;20383;-94
2023/10/26 03:08:27;;;;;;;1.63;0.90;;;;;;;;;;6199988;23;20875;-93
2023/10/26 03:10:53;;;;;;;1.10;1.00;;;;;;;;;;6200489;23;20383;-92
2023/10/26 03:13:19;;;;;;;1.30;0.80;;;;;;;;;;6199618;23;20418;-92
2023/10/26 03:15:45;;;;;;;1.93;1.23;;;;;;;;;;6209076;23;20375;-93
2023/10/26 03:18:11;;;;;;;1.10;0.80;;;;;;;;;;6198944;23;20380;-93
2023/10/26 03:20:37;;;;;;;4.50;1.10;;;;;;;;;;6201925;23;20392;-93
2023/10/26 03:23:03;;;;;;;1.57;1.10;;;;;;;;;;6199328;23;20434;-93
2023/10/26 03:25:29;;;;;;;0.80;0.80;;;;;;;;;;6203604;23;20383;-93
2023/10/26 03:27:56;;;;;;;2.50;1.13;;;;;;;;;;6227529;23;20870;-93
2023/10/26 03:30:23;;;;;;;1.37;1.07;;;;;;;;;;6228122;23;20367;-93
2023/10/26 03:32:49;;;;;;;1.27;1.00;;;;;;;;;;6204365;23;20464;-93
2023/10/26 03:35:15;;;;;;;6.63;1.30;;;;;;;;;;6200506;23;20379;-93
2023/10/26 03:37:41;;;;;;;1.27;1.13;;;;;;;;;;6203377;23;20395;-91
2023/10/26 03:40:07;;;;;;;1.10;0.70;;;;;;;;;;6200415;23;20374;-93
2023/10/26 03:42:33;;;;;;;2.20;1.00;;;;;;;;;;6201558;23;20405;-93
2023/10/26 03:44:59;;;;;;;1.67;1.00;;;;;;;;;;6201165;23;20684;-93
2023/10/26 03:47:25;;;;;;;5.70;0.90;;;;;;;;;;6209991;23;20889;-93
2023/10/26 03:49:54;;;;;;;1.20;1.10;;;;;;;;;;6200476;23;20363;-93
2023/10/26 03:52:20;;;;;;;5.10;0.87;;;;;;;;;;6204040;23;20446;-94
2023/10/26 03:54:46;;;;;;;1.20;1.10;;;;;;;;;;6200505;23;21065;-92
2023/10/26 03:57:13;;;;;;;1.50;1.10;;;;;;;;;;6203283;23;20455;-94
2023/10/26 03:59:39;;;;;;;1.33;0.90;;;;;;;;;;6200158;23;20432;-93
2023/10/26 04:02:05;;;;;;;1.00;0.90;;;;;;;;;;6203432;23;20502;-92
2023/10/26 04:04:31;;;;;;;2.83;0.87;;;;;;;;;;6199558;23;20390;-93
2023/10/26 04:06:57;;;;;;;3.20;1.30;;;;;;;;;;6228370;23;20402;-92
2023/10/26 04:09:23;;;;;;;1.60;0.90;;;;;;;;;;6199336;23;20387;-92
2023/10/26 04:11:49;;;;;;;0.83;0.80;;;;;;;;;;6199518;23;20434;-92
2023/10/26 04:14:16;;;;;;;1.33;1.20;;;;;;;;;;6200657;23;20401;-94
2023/10/26 04:16:49;;;;;;;1.00;0.90;;;;;;;;;;6208796;23;20391;-93
2023/10/26 04:19:16;;;;;;;1.57;1.10;;;;;;;;;;6226047;23;20390;-93
2023/10/26 04:21:42;;;;;;;1.30;0.77;;;;;;;;;;6225259;23;20734;-94
2023/10/26 04:24:11;;;;;;;2.70;0.90;;;;;;;;;;6224885;23;20380;-93
2023/10/26 04:26:37;;;;;;;1.03;0.80;;;;;;;;;;6228477;23;20413;-93
2023/10/26 04:29:05;;;;;;;1.00;0.90;;;;;;;;;;6201588;23;20402;-92
2023/10/26 04:31:31;;;;;;;4.30;1.20;;;;;;;;;;6201688;23;20429;-93
2023/10/26 04:33:58;;;;;;;2.97;1.00;;;;;;;;;;6168574;23;20368;-92
2023/10/26 04:36:24;;;;;;;3.00;1.40;;;;;;;;;;6172980;23;20527;-93
2023/10/26 04:38:50;;;;;;;4.30;1.27;;;;;;;;;;6170795;23;20383;-93
2023/10/26 04:41:16;;;;;;;1.73;0.97;;;;;;;;;;6172011;23;20384;-93
2023/10/26 04:43:42;;;;;;;4.37;1.60;;;;;;;;;;6112646;23;20393;-93
2023/10/26 04:46:23;;;;;;;1.37;1.00;;;;;;;;;;6112112;23;20378;-93
2023/10/26 04:48:49;;;;;;;1.67;1.00;;;;;;;;;;6115880;23;20450;-93
2023/10/26 04:51:16;;;;;;;1.27;1.17;;;;;;;;;;6110491;23;20933;-94
2023/10/26 04:53:41;;;;;;;1.70;1.60;;;;;;;;;;6111359;23;20444;-93
2023/10/26 04:56:11;;;;;;;1.40;1.10;;;;;;;;;;6112485;23;20382;-93
2023/10/26 04:58:38;;;;;;;3.07;1.63;;;;;;;;;;6112216;23;20368;-93
2023/10/26 05:01:13;;;;;;;1.27;1.17;;;;;;;;;;6115097;23;20490;-92
2023/10/26 05:03:39;;;;;;;5.23;1.40;;;;;;;;;;6113237;23;20365;-93
2023/10/26 05:06:06;;;;;;;3.17;1.10;;;;;;;;;;6139376;23;20401;-93
2023/10/26 05:08:32;;;;;;;1.17;1.03;;;;;;;;;;6116102;23;20407;-93
2023/10/26 05:11:00;;;;;;;0.80;0.80;;;;;;;;;;6115259;23;20369;-93
2023/10/26 05:13:28;;;;;;;1.57;1.00;;;;;;;;;;6116228;23;20420;-93
2023/10/26 05:15:54;;;;;;;1.83;1.20;;;;;;;;;;6202108;23;20438;-95
2023/10/26 05:18:23;;;;;;;2.20;1.30;;;;;;;;;;6204293;23;20734;-93
2023/10/26 05:20:49;;;;;;;1.13;0.90;;;;;;;;;;6181027;23;20379;-93
2023/10/26 05:23:15;;;;;;;8.27;1.47;;;;;;;;;;6200915;23;20386;-91
2023/10/26 05:25:41;;;;;;;2.47;0.93;;;;;;;;;;6199509;23;20470;-92
2023/10/26 05:28:07;;;;;;;4.73;1.90;;;;;;;;;;6197928;23;20376;-92
2023/10/26 05:30:34;;;;;;;4.00;1.00;;;;;;;;;;6226373;23;20835;-92
2023/10/26 05:33:00;;;;;;;1.53;1.10;;;;;;;;;;6202324;23;20422;-92
2023/10/26 05:35:26;;;;;;;1.60;1.50;;;;;;;;;;6201026;23;20379;-92
2023/10/26 05:37:52;;;;;;;2.37;1.80;;;;;;;;;;6205438;23;20376;-92
2023/10/26 05:40:18;;;;;;;1.20;1.10;;;;;;;;;;6201240;23;20397;-92
2023/10/26 05:42:44;;;;;;;2.70;1.23;;;;;;;;;;6202187;23;20731;-91
2023/10/26 05:45:10;;;;;;;1.40;1.30;;;;;;;;;;6200374;23;20458;-92
2023/10/26 05:47:37;;;;;;;5.07;1.30;;;;;;;;;;6201050;23;20407;-91
2023/10/26 05:50:05;;;;;;;2.40;1.37;;;;;;;;;;6198868;23;20442;-90
2023/10/26 05:55:12;;;;;;;1.27;1.17;;;;;;;;;;6254620;22;20449;-88
2023/10/26 05:57:39;;;;;;;3.27;1.40;;;;;;;;;;6203516;23;20382;-89
2023/10/26 06:00:09;;;;;;;1.47;1.33;;;;;;;;;;6233908;23;20366;-89
2023/10/26 06:02:35;;;;;;;1.93;1.30;;;;;;;;;;6202866;23;20378;-92
2023/10/26 06:05:01;;;;;;;3.00;1.77;;;;;;;;;;6208243;23;20386;-90
2023/10/26 06:07:27;;;;;;;1.60;1.33;;;;;;;;;;6205194;23;20398;-91
2023/10/26 06:09:53;;;;;;;2.00;1.80;;;;;;;;;;6208022;23;20408;-93
2023/10/26 06:12:19;;;;;;;2.03;1.83;;;;;;;;;;6204844;23;20414;-93
2023/10/26 06:14:47;;;;;;;1.83;1.73;;;;;;;;;;6208200;23;20547;-95
2023/10/26 06:17:13;;;;;;;4.10;1.63;;;;;;;;;;6230426;23;20397;-92
2023/10/26 06:19:39;;;;;;;2.43;1.37;;;;;;;;;;6206099;23;20382;-89
2023/10/26 06:22:05;;;;;;;3.23;1.37;;;;;;;;;;6204462;23;20413;-92
2023/10/26 06:24:31;;;;;;;1.33;1.23;;;;;;;;;;6210994;23;20386;-89
2023/10/26 06:26:57;;;;;;;7.70;2.07;;;;;;;;;;6206076;23;20383;-91
2023/10/26 06:29:23;;;;;;;4.10;1.40;;;;;;;;;;6208287;23;20753;-92
2023/10/26 06:31:49;;;;;;;1.63;1.53;;;;;;;;;;6205174;23;20426;-91
2023/10/26 06:34:15;;;;;;;2.50;1.90;;;;;;;;;;6203403;23;20386;-92
2023/10/26 06:36:41;;;;;;;2.73;1.33;;;;;;;;;;6228643;23;20366;-91
2023/10/26 06:39:07;;;;;;;2.50;2.00;;;;;;;;;;6208472;22;20366;-90
2023/10/26 06:41:33;;;;;;;1.20;1.00;;;;;;;;;;6200911;23;20386;-91
2023/10/26 06:43:59;;;;;;;6.87;1.50;;;;;;;;;;6206424;23;20415;-91
2023/10/26 06:46:25;;;;;;;1.93;1.50;;;;;;;;;;6202948;23;20845;-91
2023/10/26 06:48:51;;;;;;;2.10;1.60;;;;;;;;;;6205844;23;20386;-90
2023/10/26 06:51:18;;;;;;;1.97;1.47;;;;;;;;;;6202558;23;20397;-91
2023/10/26 06:53:45;;;;;;;2.47;1.80;;;;;;;;;;6206690;23;20424;-89
2023/10/26 06:56:14;;;;;;;8.67;1.83;;;;;;;;;;6229869;23;20402;-92
2023/10/26 07:01:16;;;;;;;2.03;1.80;;;;;;;;;;6242713;22;20405;-90
2023/10/26 07:03:42;;;;;;;6.20;2.10;;;;;;;;;;6207673;23;20467;-90
2023/10/26 07:06:09;;;;;;;4.33;1.60;;;;;;;;;;6229290;23;20367;-89
2023/10/26 07:08:35;;;;;;;3.70;1.93;;;;;;;;;;6205169;23;20401;-90
2023/10/26 07:11:06;;;;;;;1.87;1.73;;;;;;;;;;6204968;23;20483;-91
2023/10/26 07:13:33;;;;;;;4.43;1.83;;;;;;;;;;6207963;23;20432;-92
2023/10/26 07:16:03;;;;;;;2.33;1.87;;;;;;;;;;6232685;23;20488;-92
2023/10/26 07:18:29;;;;;;;6.57;1.30;;;;;;;;;;6205220;23;20385;-91
2023/10/26 07:20:55;;;;;;;3.77;1.80;;;;;;;;;;6206648;23;20370;-91
2023/10/26 07:23:21;;;;;;;4.93;2.20;;;;;;;;;;6204673;23;20369;-91
2023/10/26 07:25:47;;;;;;;1.73;1.60;;;;;;;;;;6206376;23;20386;-90
2023/10/26 07:28:13;;;;;;;1.50;1.40;;;;;;;;;;6204526;23;20382;-90
2023/10/26 07:30:42;;;;;;;6.33;2.13;;;;;;;;;;6209136;23;20378;-90
2023/10/26 07:33:08;;;;;;;2.70;2.33;;;;;;;;;;6195470;23;20439;-91
2023/10/26 07:35:40;;;;;;;2.53;1.73;;;;;;;;;;6170641;23;20406;-92
2023/10/26 07:38:09;;;;;;;3.70;2.30;;;;;;;;;;6169313;23;20395;-91
2023/10/26 07:40:37;;;;;;;4.97;2.00;;;;;;;;;;6170263;23;20412;-91
2023/10/26 07:43:03;;;;;;;2.40;2.07;;;;;;;;;;6168912;23;20466;-92
2023/10/26 07:45:29;;;;;;;2.63;1.57;;;;;;;;;;6174682;23;20411;-92
2023/10/26 07:47:58;;;;;;;3.50;2.13;;;;;;;;;;6167935;23;20494;-92
2023/10/26 07:50:25;;;;;;;3.27;1.67;;;;;;;;;;6172182;23;20380;-92
2023/10/26 07:52:50;;;;;;;3.37;1.83;;;;;;;;;;6169747;23;20432;-91
2023/10/26 07:55:18;;;;;;;4.90;1.87;;;;;;;;;;6172223;23;20470;-88
2023/10/26 07:57:55;;;;;;;4.70;2.20;;;;;;;;;;6169861;23;20863;-88
2023/10/26 08:00:29;;;;;;;2.03;1.07;;;;;;;;;;6171743;23;20874;-88
2023/10/26 08:02:55;;;;;;;2.30;1.20;;;;;;;;;;6168029;23;20388;-88
2023/10/26 08:05:21;;;;;;;1.50;1.40;;;;;;;;;;6197923;23;20371;-88
2023/10/26 08:07:47;;;;;;;1.50;1.23;;;;;;;;;;6175856;23;20434;-88
2023/10/26 08:10:13;;;;;;;2.80;1.40;;;;;;;;;;6197390;23;20378;-88
2023/10/26 08:12:39;;;;;;;5.93;1.23;;;;;;;;;;6170219;23;20457;-89
2023/10/26 08:15:07;;;;;;;3.23;2.93;;;;;;;;;;6194039;23;20382;-89
2023/10/26 08:17:35;;;;;;;2.03;1.30;;;;;;;;;;6174675;23;21006;-89
2023/10/26 08:20:01;;;;;;;3.13;1.33;;;;;;;;;;6202054;23;20886;-89
2023/10/26 08:22:28;;;;;;;2.13;1.80;;;;;;;;;;6232669;23;20382;-89
2023/10/26 08:24:54;;;;;;;1.80;1.10;;;;;;;;;;6202229;23;20380;-88
2023/10/26 08:27:20;;;;;;;1.57;0.77;;;;;;;;;;6207117;23;20409;-88
2023/10/26 08:29:46;;;;;;;2.13;1.10;;;;;;;;;;6200338;23;20374;-90
2023/10/26 08:32:12;;;;;;;0.90;0.90;;;;;;;;;;6210588;23;21163;-87
2023/10/26 08:34:39;;;;;;;1.60;0.93;;;;;;;;;;6201748;23;21208;-87
2023/10/26 08:37:05;;;;;;;1.30;1.17;;;;;;;;;;6205649;23;20379;-87
2023/10/26 08:39:31;;;;;;;1.50;1.13;;;;;;;;;;6202668;23;20862;-88
2023/10/26 08:42:01;;;;;;;3.70;1.30;;;;;;;;;;6227413;23;20450;-89
2023/10/26 08:44:27;;;;;;;1.70;1.30;;;;;;;;;;6203841;23;20431;-89
2023/10/26 08:46:53;;;;;;;2.77;1.40;;;;;;;;;;6206175;23;20382;-89
2023/10/26 08:49:20;;;;;;;3.03;1.27;;;;;;;;;;6202398;23;20866;-89
2023/10/26 08:51:46;;;;;;;1.60;1.00;;;;;;;;;;6204068;23;20381;-88
2023/10/26 08:54:12;;;;;;;6.60;1.80;;;;;;;;;;6201994;23;20385;-88
2023/10/26 08:56:38;;;;;;;2.00;1.77;;;;;;;;;;6204555;23;20378;-89
2023/10/26 08:59:04;;;;;;;1.60;1.30;;;;;;;;;;6225829;23;20358;-90
2023/10/26 09:01:30;;;;;;;1.60;1.50;;;;;;;;;;6202203;23;20385;-88
2023/10/26 09:03:56;;;;;;;1.57;1.40;;;;;;;;;;6202427;23;20378;-87
2023/10/26 09:06:43;;;;;;;5.53;2.70;;;;;;;;;;6206829;23;20374;-87
2023/10/26 09:09:09;;;;;;;5.23;2.40;;;;;;;;;;6228782;23;20379;-88
2023/10/26 09:11:35;;;;;;;4.60;2.27;;;;;;;;;;6205338;23;20382;-89
2023/10/26 09:14:17;;;;;;;4.50;2.70;;;;;;;;;;6202339;23;20512;-89
2023/10/26 09:16:45;;;;;;;2.90;1.50;;;;;;;;;;6206199;23;20405;-88
2023/10/26 09:19:18;;;;;;;1.73;1.30;;;;;;;;;;6201855;23;20382;-90
2023/10/26 09:21:57;;;;;;;1.50;1.23;;;;;;;;;;6205782;23;20374;-90
2023/10/26 09:24:26;;;;;;;1.73;1.13;;;;;;;;;;6202002;23;20390;-90
2023/10/26 09:26:56;;;;;;;2.50;1.47;;;;;;;;;;6256994;23;20406;-90
2023/10/26 09:29:35;;;;;;;2.60;1.30;;;;;;;;;;6204441;23;20893;-89
2023/10/26 09:32:02;;;;;;;1.70;1.50;;;;;;;;;;6204608;23;20418;-89
2023/10/26 09:34:28;;;;;;;2.70;1.70;;;;;;;;;;6203863;23;20384;-90
2023/10/26 09:37:04;;;;;;;3.40;1.90;;;;;;;;;;6211004;23;20402;-89
2023/10/26 09:39:31;;;;;;;1.30;1.10;;;;;;;;;;6205670;23;20386;-90
2023/10/26 09:42:01;;;;;;;2.23;1.60;;;;;;;;;;6205071;23;20418;-89
2023/10/26 09:44:30;;;;;;;4.60;2.40;;;;;;;;;;6205439;23;20359;-90
2023/10/26 09:46:56;;;;;;;2.30;1.87;;;;;;;;;;6203764;23;20389;-88
2023/10/26 09:49:23;;;;;;;1.63;1.30;;;;;;;;;;6204147;23;20370;-88
2023/10/26 09:51:49;;;;;;;3.30;1.80;;;;;;;;;;6202687;23;20392;-89
2023/10/26 09:54:16;;;;;;;1.60;0.97;;;;;;;;;;6230975;23;20350;-88
2023/10/26 09:56:47;;;;;;;1.90;1.80;;;;;;;;;;6203635;23;20390;-90
2023/10/26 09:59:16;;;;;;;1.87;1.60;;;;;;;;;;6229094;23;20382;-87
2023/10/26 10:01:42;;;;;;;2.17;2.00;;;;;;;;;;6203912;23;20492;-87
2023/10/26 10:04:09;;;;;;;1.40;1.30;;;;;;;;;;6204746;23;20386;-88
2023/10/26 10:10:01;;;;;;;2.07;1.20;;;;;;;;;;6233526;23;20386;-89
2023/10/26 10:12:27;;;;;;;3.77;1.03;;;;;;;;;;6228148;23;20418;-89
2023/10/26 10:15:09;;;;;;;1.60;1.50;;;;;;;;;;6225761;23;20379;-89
2023/10/26 10:17:45;;;;;;;1.57;1.47;;;;;;;;;;6209793;23;20371;-89
2023/10/26 10:20:17;;;;;;;2.53;1.33;;;;;;;;;;6227307;23;20389;-89
2023/10/26 10:22:46;;;;;;;1.90;1.27;;;;;;;;;;6230724;23;20799;-88
2023/10/26 10:25:12;;;;;;;2.20;1.57;;;;;;;;;;6226661;23;20412;-89
2023/10/26 10:27:40;;;;;;;1.43;1.00;;;;;;;;;;6203036;23;20383;-89
2023/10/26 10:30:10;;;;;;;2.20;1.60;;;;;;;;;;6227434;23;20381;-88
2023/10/26 10:32:48;;;;;;;3.20;1.50;;;;;;;;;;6203133;23;20430;-86
2023/10/26 10:35:25;;;;;;;1.37;1.13;;;;;;;;;;6227661;23;20390;-87
2023/10/26 10:38:14;;;;;;;3.33;1.50;;;;;;;;;;6204450;23;20369;-87
2023/10/26 10:40:55;;;;;;;1.57;1.40;;;;;;;;;;6225936;23;20792;-88
2023/10/26 10:43:40;;;;;;;1.50;1.40;;;;;;;;;;6226939;23;20374;-87
2023/10/26 10:46:09;;;;;;;2.43;1.77;;;;;;;;;;6226013;22;20367;-88
2023/10/26 10:48:38;;;;;;;1.47;1.27;;;;;;;;;;6229088;22;20469;-89
2023/10/26 10:51:04;;;;;;;2.17;1.40;;;;;;;;;;6201720;23;20441;-87
2023/10/26 10:53:31;;;;;;;1.47;1.20;;;;;;;;;;6205710;23;20762;-87
2023/10/26 10:55:58;;;;;;;1.33;1.20;;;;;;;;;;6201936;23;20766;-88
2023/10/26 10:58:24;;;;;;;2.60;1.27;;;;;;;;;;6207524;23;20382;-88
2023/10/26 11:00:50;;;;;;;1.03;1.00;;;;;;;;;;6201963;23;20852;-87
2023/10/26 11:05:52;;;;;;;1.37;1.27;;;;;;;;;;6247567;22;20437;-87
2023/10/26 11:08:19;;;;;;;1.87;1.30;;;;;;;;;;6204780;23;20385;-86
2023/10/26 11:10:50;;;;;;;1.47;1.37;;;;;;;;;;6204951;23;20512;-87
2023/10/26 11:13:21;;;;;;;1.40;1.10;;;;;;;;;;6238150;23;20452;-87
2023/10/26 11:15:47;;;;;;;1.63;1.50;;;;;;;;;;6204086;23;20382;-87
2023/10/26 11:18:21;;;;;;;1.53;1.43;;;;;;;;;;6206615;23;20401;-88
2023/10/26 11:20:47;;;;;;;1.17;1.07;;;;;;;;;;6259914;23;20374;-87
2023/10/26 11:23:16;;;;;;;1.10;1.00;;;;;;;;;;6232456;23;20374;-87
2023/10/26 11:25:46;;;;;;;1.67;1.57;;;;;;;;;;6231455;23;20402;-88
2023/10/26 11:28:20;;;;;;;2.00;1.40;;;;;;;;;;6230364;23;20918;-89
2023/10/26 11:30:50;;;;;;;1.63;1.50;;;;;;;;;;6233778;23;20390;-89
2023/10/26 11:33:35;;;;;;;1.30;1.20;;;;;;;;;;6141034;23;20416;-88
2023/10/26 11:36:01;;;;;;;1.30;1.20;;;;;;;;;;6140509;23;20483;-89
2023/10/26 11:38:31;;;;;;;1.77;1.00;;;;;;;;;;6141578;23;20376;-89
2023/10/26 11:40:57;;;;;;;1.10;1.00;;;;;;;;;;6117065;23;20381;-89
2023/10/26 11:43:44;;;;;;;2.10;1.37;;;;;;;;;;6143367;23;20481;-88
2023/10/26 11:46:09;;;;;;;1.70;1.60;;;;;;;;;;6141910;23;20356;-91
2023/10/26 11:48:35;;;;;;;2.00;1.60;;;;;;;;;;6141470;23;20385;-88
2023/10/26 11:51:09;;;;;;;2.07;1.57;;;;;;;;;;6166693;23;20416;-86
2023/10/26 11:53:35;;;;;;;1.50;1.40;;;;;;;;;;6165220;23;20440;-88
2023/10/26 11:56:02;;;;;;;2.40;2.20;;;;;;;;;;6166733;23;20372;-88
2023/10/26 11:58:28;;;;;;;3.10;2.80;;;;;;;;;;6169539;23;20932;-90
2023/10/26 12:00:56;;;;;;;3.40;2.80;;;;;;;;;;6144582;23;20472;-90
2023/10/26 12:03:22;;;;;;;4.30;3.17;;;;;;;;;;6159421;23;20409;-92
2023/10/26 12:05:48;;;;;;;3.80;3.30;;;;;;;;;;6209350;22;20413;-91
2023/10/26 12:08:14;;;;;;;3.33;3.03;;;;;;;;;;6208715;23;20366;-89
2023/10/26 12:10:41;;;;;;;3.00;2.70;;;;;;;;;;6205987;23;20409;-89
2023/10/26 12:13:08;;;;;;;4.80;3.30;;;;;;;;;;6233411;22;20965;-89
2023/10/26 12:15:36;;;;;;;3.20;2.90;;;;;;;;;;6206765;23;20382;-90
2023/10/26 12:18:02;;;;;;;3.00;2.80;;;;;;;;;;6208261;22;20450;-88
2023/10/26 12:20:28;;;;;;;2.10;1.63;;;;;;;;;;6172960;23;20422;-88
2023/10/26 12:22:54;;;;;;;1.53;1.40;;;;;;;;;;6176841;23;20438;-91
2023/10/26 12:25:20;;;;;;;1.80;1.70;;;;;;;;;;6174872;23;20407;-89
2023/10/26 12:27:46;;;;;;;1.70;1.57;;;;;;;;;;6175204;23;20402;-88
2023/10/26 12:30:14;;;;;;;2.70;2.10;;;;;;;;;;6171968;23;20445;-90
2023/10/26 12:32:40;;;;;;;4.67;2.17;;;;;;;;;;6175472;23;20427;-91
2023/10/26 12:35:06;;;;;;;1.60;1.40;;;;;;;;;;6173657;23;20517;-88
2023/10/26 12:37:32;;;;;;;1.97;1.57;;;;;;;;;;6175752;23;20395;-90
2023/10/26 12:39:58;;;;;;;3.33;1.70;;;;;;;;;;6175121;23;20393;-90
2023/10/26 12:42:24;;;;;;;2.60;2.10;;;;;;;;;;6178757;23;20399;-91
2023/10/26 12:44:51;;;;;;;3.17;1.73;;;;;;;;;;6175017;23;20418;-91
2023/10/26 12:47:17;;;;;;;2.67;1.53;;;;;;;;;;6181243;23;20395;-91
2023/10/26 12:49:44;;;;;;;1.90;1.70;;;;;;;;;;6200129;23;20385;-90
2023/10/26 12:52:10;;;;;;;4.27;2.10;;;;;;;;;;6167425;23;20422;-90
2023/10/26 12:54:36;;;;;;;2.27;1.47;;;;;;;;;;6142987;23;20384;-91
2023/10/26 12:57:02;;;;;;;3.97;1.60;;;;;;;;;;6143223;23;20544;-89
2023/10/26 12:59:28;;;;;;;1.63;1.43;;;;;;;;;;6141363;23;20884;-91
2023/10/26 13:01:56;;;;;;;2.90;2.00;;;;;;;;;;6143425;23;20392;-89
2023/10/26 13:04:22;;;;;;;6.40;4.70;;;;;;;;;;6144901;23;20395;-89
2023/10/26 13:06:55;;;;;;;2.20;1.70;;;;;;;;;;6142789;23;20380;-90
2023/10/26 13:09:22;;;;;;;2.20;2.00;;;;;;;;;;6144842;23;20380;-89
2023/10/26 13:11:48;;;;;;;1.87;1.70;;;;;;;;;;6142012;23;20384;-90
2023/10/26 13:14:16;;;;;;;3.80;2.40;;;;;;;;;;6143142;23;20400;-89
2023/10/26 13:19:18;;;;;;;2.57;2.30;;;;;;;;;;6240270;22;20540;-90
2023/10/26 13:22:04;;;;;;;6.20;2.80;;;;;;;;;;6206847;23;20893;-90
2023/10/26 13:24:32;;;;;;;3.97;3.20;;;;;;;;;;6229717;23;20398;-88
2023/10/26 13:26:58;;;;;;;3.87;2.60;;;;;;;;;;6206325;23;20461;-90
2023/10/26 13:29:24;;;;;;;3.67;3.23;;;;;;;;;;6231917;23;20799;-90
2023/10/26 13:31:50;;;;;;;6.87;4.13;;;;;;;;;;6206615;23;20405;-90
2023/10/26 18:18:50;;;;;;;4.73;1.83;;;;;;;;;;6262559;22;20452;-90
2023/10/26 18:21:16;;;;;;;8.90;3.10;;;;;;;;;;6252738;22;20404;-90
2023/10/26 18:23:42;;;;;;;5.00;3.17;;;;;;;;;;6229101;23;20531;-89
2023/10/26 18:26:08;;;;;;;8.80;4.30;;;;;;;;;;6200015;23;20454;-90
2023/10/26 18:28:38;;;;;;;4.40;3.07;;;;;;;;;;6223153;23;20410;-90
2023/10/26 18:31:06;;;;;;;8.47;3.50;;;;;;;;;;6223691;23;21268;-90
2023/10/26 18:33:32;;;;;;;8.13;3.80;;;;;;;;;;6221098;22;20402;-90
2023/10/26 18:36:00;;;;;;;9.50;3.07;;;;;;;;;;6228942;23;20406;-90
2023/10/26 18:38:26;;;;;;;5.40;2.90;;;;;;;;;;6224329;23;20387;-91
2023/10/26 18:40:52;;;;;;;4.83;2.10;;;;;;;;;;6224233;23;20383;-91
2023/10/26 18:43:18;;;;;;;3.60;2.07;;;;;;;;;;6221757;23;20423;-88
2023/10/26 18:45:53;;;;;;;3.93;1.70;;;;;;;;;;6219514;23;20422;-88
2023/10/26 18:48:19;;;;;;;6.60;1.80;;;;;;;;;;6221206;23;20402;-86
2023/10/26 18:50:48;;;;;;;2.77;1.80;;;;;;;;;;6219899;23;20375;-88
2023/10/26 18:53:14;;;;;;;9.30;2.63;;;;;;;;;;6219721;23;20383;-87
2023/10/26 18:55:41;;;;;;;4.80;1.90;;;;;;;;;;6222787;23;20386;-87
2023/10/26 18:58:10;;;;;;;4.43;1.70;;;;;;;;;;6219264;23;20446;-88
2023/10/26 19:00:36;;;;;;;10.33;2.20;;;;;;;;;;6222519;23;20439;-87
2023/10/26 19:03:03;;;;;;;6.20;2.27;;;;;;;;;;6219551;23;20455;-91
2023/10/26 19:05:29;;;;;;;8.17;2.43;;;;;;;;;;6223747;23;20375;-88
2023/10/26 19:07:55;;;;;;;7.50;3.43;;;;;;;;;;6190962;23;20430;-87
2023/10/26 19:10:21;;;;;;;4.23;2.80;;;;;;;;;;6168918;23;20833;-88
2023/10/26 19:12:52;;;;;;;4.23;2.43;;;;;;;;;;6169755;23;20441;-88
2023/10/26 19:15:18;;;;;;;7.37;3.23;;;;;;;;;;6170787;23;20386;-88
2023/10/26 19:17:44;;;;;;;7.37;3.30;;;;;;;;;;6167782;23;20410;-87
2023/10/26 19:20:10;;;;;;;6.00;2.00;;;;;;;;;;6167716;23;20403;-88
2023/10/26 19:22:36;;;;;;;4.80;1.90;;;;;;;;;;6168019;23;20386;-87
2023/10/26 19:25:02;;;;;;;2.97;2.63;;;;;;;;;;6192964;23;20438;-87
2023/10/26 19:27:28;;;;;;;6.00;2.70;;;;;;;;;;6168433;23;20779;-88
2023/10/26 19:29:54;;;;;;;11.50;4.27;;;;;;;;;;6168256;23;20438;-87
2023/10/26 19:32:20;;;;;;;4.37;3.73;;;;;;;;;;6194825;23;20901;-88
2023/10/26 19:34:47;;;;;;;4.70;2.87;;;;;;;;;;6172591;23;20375;-88
2023/10/26 19:37:13;;;;;;;10.40;3.50;;;;;;;;;;6168149;23;20391;-88
2023/10/26 19:39:39;;;;;;;9.80;3.77;;;;;;;;;;6165291;23;21215;-89
2023/10/26 19:42:05;;;;;;;12.50;5.00;;;;;;;;;;6167253;23;20906;-89